Time;durP1;ratioP1;P1;durP2;ratioP2;P2;SDS_P1;SDS_P2;PMS_P1;PMS_P2;Temp;Humidity;BMP_temperature;BMP_pressure;BME280_temperature;BME280_humidity;BME280_pressure;Samples;Min_cycle;Max_cycle;Signal;HPM_P1;HPM_P2
2022/06/27 00:02:20;;;;;;;7.95;3.20;;;;;;;17.37;99.77;101418.22;5052639;28;20451;-54
2022/06/27 00:04:48;;;;;;;6.13;3.35;;;;;;;17.36;98.96;101424.50;5052253;28;20048;-55
2022/06/27 00:07:16;;;;;;;8.60;3.50;;;;;;;17.33;100.00;101425.59;5052298;28;20041;-48
2022/06/27 00:09:44;;;;;;;6.50;3.00;;;;;;;17.34;100.00;101421.09;5052251;28;20066;-51
2022/06/27 00:12:12;;;;;;;7.13;3.40;;;;;;;17.37;99.80;101416.38;5052553;28;20049;-53
2022/06/27 00:14:40;;;;;;;6.68;3.25;;;;;;;17.42;100.00;101417.81;5052313;28;20045;-55
2022/06/27 00:17:08;;;;;;;7.40;3.53;;;;;;;17.42;100.00;101415.16;5051814;28;20114;-49
2022/06/27 00:19:38;;;;;;;8.32;3.47;;;;;;;17.41;100.00;101424.97;5052199;28;20057;-54
2022/06/27 00:22:06;;;;;;;7.00;3.90;;;;;;;17.41;100.00;101422.31;5051966;28;20055;-49
2022/06/27 00:24:35;;;;;;;8.35;3.88;;;;;;;17.43;100.00;101412.34;5052000;28;20121;-48
2022/06/27 00:27:03;;;;;;;6.47;3.33;;;;;;;17.40;100.00;101421.44;5051834;28;20106;-56
2022/06/27 00:29:31;;;;;;;7.43;3.70;;;;;;;17.37;100.00;101427.03;5051979;28;20041;-52
2022/06/27 00:31:59;;;;;;;7.13;3.20;;;;;;;17.40;100.00;101429.41;5050225;28;20504;-47
2022/06/27 00:34:27;;;;;;;8.50;3.80;;;;;;;17.44;100.00;101431.81;5052161;28;20068;-55
2022/06/27 00:36:58;;;;;;;6.43;3.00;;;;;;;17.39;100.00;101441.00;5052154;28;20432;-48
2022/06/27 00:39:26;;;;;;;6.72;3.30;;;;;;;17.43;100.00;101446.09;5052306;28;20408;-50
2022/06/27 00:41:54;;;;;;;6.57;2.90;;;;;;;17.46;100.00;101454.63;5052206;28;20045;-51
2022/06/27 00:44:33;;;;;;;9.00;3.63;;;;;;;17.36;100.00;101457.22;5051831;28;20083;-50
2022/06/27 00:47:02;;;;;;;6.63;3.67;;;;;;;17.33;100.00;101459.28;5052294;28;20447;-49
2022/06/27 00:49:30;;;;;;;6.10;3.67;;;;;;;17.36;100.00;101467.03;5051909;28;20126;-55
2022/06/27 00:52:00;;;;;;;7.82;3.75;;;;;;;17.28;100.00;101467.66;5051890;28;20045;-55
2022/06/27 00:54:28;;;;;;;8.30;3.20;;;;;;;17.27;100.00;101457.16;5051652;28;20056;-51
2022/06/27 00:56:56;;;;;;;6.72;3.35;;;;;;;17.24;100.00;101468.91;5052016;28;20079;-49
2022/06/27 00:59:24;;;;;;;12.13;3.60;;;;;;;17.27;100.00;101465.97;5051805;28;20057;-55
2022/06/27 01:01:53;;;;;;;8.75;3.70;;;;;;;17.29;100.00;101465.84;5051788;28;20077;-49
2022/06/27 01:04:22;;;;;;;6.63;3.13;;;;;;;17.28;100.00;101472.16;5050499;28;20547;-49
2022/06/27 01:06:51;;;;;;;8.32;3.80;;;;;;;17.26;100.00;101474.06;5051913;28;20173;-49
2022/06/27 01:09:22;;;;;;;7.63;3.55;;;;;;;17.32;100.00;101473.56;5051735;28;20041;-49
2022/06/27 01:11:51;;;;;;;6.53;3.25;;;;;;;17.32;100.00;101476.25;5051593;28;20098;-51
2022/06/27 01:14:20;;;;;;;8.50;3.60;;;;;;;17.30;100.00;101480.81;5067204;28;20103;-56
2022/06/27 01:16:48;;;;;;;6.65;3.42;;;;;;;17.36;100.00;101482.97;5051794;28;20488;-49
2022/06/27 01:19:18;;;;;;;5.72;3.08;;;;;;;17.42;100.00;101470.97;5051539;28;20048;-56
2022/06/27 01:21:49;;;;;;;8.10;3.55;;;;;;;17.37;100.00;101477.53;5051675;28;20491;-48
2022/06/27 01:24:20;;;;;;;9.70;3.95;;;;;;;17.28;100.00;101480.13;5051890;28;20045;-55
2022/06/27 01:26:49;;;;;;;7.68;4.07;;;;;;;17.25;100.00;101481.22;5051449;28;20053;-53
2022/06/27 01:29:18;;;;;;;9.85;4.90;;;;;;;17.25;100.00;101473.25;5052051;28;20041;-54
2022/06/27 01:31:47;;;;;;;9.52;4.15;;;;;;;17.27;100.00;101471.28;5055306;28;20120;-47
2022/06/27 01:34:16;;;;;;;6.95;3.85;;;;;;;17.29;100.00;101465.84;5055125;28;20040;-51
2022/06/27 01:36:45;;;;;;;6.10;3.60;;;;;;;17.32;100.00;101460.28;5055204;28;20048;-48
2022/06/27 01:39:15;;;;;;;7.97;3.85;;;;;;;17.26;100.00;101466.97;5055389;28;20063;-55
2022/06/27 01:41:47;;;;;;;6.20;3.47;;;;;;;17.24;100.00;101464.41;5055289;28;20052;-46
2022/06/27 01:44:16;;;;;;;8.20;3.85;;;;;;;17.26;100.00;101459.00;5054847;28;20507;-49
2022/06/27 01:46:46;;;;;;;7.35;3.83;;;;;;;17.20;100.00;101452.34;5055039;28;20083;-49
2022/06/27 01:49:16;;;;;;;9.55;4.18;;;;;;;17.23;100.00;101448.59;5054945;28;20052;-53
2022/06/27 01:51:46;;;;;;;8.25;3.83;;;;;;;17.21;100.00;101453.22;5054977;28;20516;-47
2022/06/27 01:54:15;;;;;;;8.68;4.13;;;;;;;17.22;100.00;101437.13;5054806;28;20049;-51
2022/06/27 01:56:46;;;;;;;7.95;3.80;;;;;;;17.24;100.00;101435.16;5070099;28;20049;-52
2022/06/27 01:59:15;;;;;;;10.18;4.10;;;;;;;17.26;100.00;101420.91;5054654;28;20053;-49
2022/06/27 02:01:45;;;;;;;6.82;3.42;;;;;;;17.25;100.00;101422.75;5054905;28;20071;-48
2022/06/27 02:04:15;;;;;;;7.53;3.60;;;;;;;17.23;100.00;101428.19;5054682;28;20091;-54
2022/06/27 02:06:45;;;;;;;11.68;4.10;;;;;;;17.23;100.00;101430.00;5054555;28;20492;-49
2022/06/27 02:09:15;;;;;;;8.93;4.22;;;;;;;17.24;100.00;101397.13;5054632;28;20087;-53
2022/06/27 02:11:46;;;;;;;11.32;5.03;;;;;;;17.22;100.00;101401.75;5054447;28;20045;-55
2022/06/27 02:14:15;;;;;;;8.50;5.03;;;;;;;17.19;100.00;101402.00;5053241;28;20057;-55
2022/06/27 02:16:43;;;;;;;11.43;4.90;;;;;;;17.26;100.00;101408.50;5052898;28;20091;-56
2022/06/27 02:19:13;;;;;;;8.98;4.95;;;;;;;17.22;100.00;101399.09;5054188;28;20128;-54
2022/06/27 02:21:42;;;;;;;9.15;4.70;;;;;;;17.20;100.00;101406.34;5054422;28;20526;-52
2022/06/27 02:24:11;;;;;;;9.13;4.38;;;;;;;17.20;100.00;101406.34;5054367;28;20045;-50
2022/06/27 02:26:41;;;;;;;10.73;4.50;;;;;;;17.21;100.00;101411.53;5054488;28;20053;-49
2022/06/27 02:29:10;;;;;;;8.68;4.63;;;;;;;17.16;100.00;101400.44;5054128;28;20187;-54
2022/06/27 02:31:46;;;;;;;8.02;5.05;;;;;;;17.17;100.00;101398.63;5054144;28;20102;-50
2022/06/27 02:34:14;;;;;;;8.57;4.82;;;;;;;17.15;100.00;101401.44;5054231;28;20051;-54
2022/06/27 02:36:44;;;;;;;8.75;4.60;;;;;;;17.13;100.00;101402.53;5053018;28;20041;-49
2022/06/27 02:39:14;;;;;;;10.10;5.40;;;;;;;17.15;100.00;101412.06;5054145;28;20083;-48
2022/06/27 02:41:45;;;;;;;9.82;5.43;;;;;;;17.14;100.00;101404.19;5053791;28;20063;-47
2022/06/27 02:44:15;;;;;;;10.27;5.75;;;;;;;17.13;100.00;101399.88;5053947;28;20099;-50
2022/06/27 02:46:43;;;;;;;9.55;6.00;;;;;;;17.12;100.00;101395.50;5053931;28;20084;-46
2022/06/27 02:49:12;;;;;;;11.70;6.00;;;;;;;17.09;100.00;101393.13;5053749;28;20575;-55
2022/06/27 02:51:42;;;;;;;11.88;6.47;;;;;;;17.06;100.00;101386.25;5069581;28;20057;-49
2022/06/27 02:54:12;;;;;;;12.93;6.50;;;;;;;17.08;100.00;101380.81;5053886;28;20041;-57
2022/06/27 02:56:50;;;;;;;14.60;6.85;;;;;;;17.09;100.00;101374.53;5053769;28;20091;-56
2022/06/27 02:59:24;;;;;;;11.90;7.40;;;;;;;17.12;100.00;101368.94;5053860;28;20056;-52
2022/06/27 03:01:53;;;;;;;11.95;6.40;;;;;;;17.11;100.00;101367.25;5053625;28;20052;-56
2022/06/27 03:04:21;;;;;;;10.40;6.22;;;;;;;17.17;100.00;101366.75;5053781;28;20045;-51
2022/06/27 03:06:49;;;;;;;11.23;6.00;;;;;;;17.15;100.00;101353.59;5053698;28;20128;-56
2022/06/27 03:09:18;;;;;;;10.80;6.05;;;;;;;17.11;100.00;101356.63;5053681;28;20399;-51
2022/06/27 03:11:47;;;;;;;11.27;6.70;;;;;;;17.09;100.00;101351.44;5053304;28;20044;-54
2022/06/27 03:14:15;;;;;;;10.95;6.80;;;;;;;17.12;100.00;101356.47;5053564;28;20081;-49
2022/06/27 03:16:45;;;;;;;11.73;6.93;;;;;;;17.11;100.00;101351.31;5053335;28;20103;-48
2022/06/27 03:19:13;;;;;;;9.27;6.28;;;;;;;17.12;100.00;101353.00;5053104;28;20041;-54
2022/06/27 03:21:42;;;;;;;10.32;6.35;;;;;;;17.06;100.00;101344.56;5053248;28;20045;-53
2022/06/27 03:24:10;;;;;;;10.85;5.50;;;;;;;17.06;100.00;101349.88;5053260;28;20373;-56
2022/06/27 03:26:38;;;;;;;8.35;5.47;;;;;;;17.07;100.00;101345.44;5053236;28;20484;-56
2022/06/27 03:29:06;;;;;;;10.07;6.05;;;;;;;17.04;100.00;101346.53;5053291;28;20689;-54
2022/06/27 03:31:34;;;;;;;13.63;7.43;;;;;;;17.03;100.00;101349.31;5053285;28;20110;-50
2022/06/27 03:34:04;;;;;;;13.02;8.38;;;;;;;17.08;100.00;101347.09;5053036;28;20488;-56
2022/06/27 03:36:32;;;;;;;17.45;8.60;;;;;;;17.04;100.00;101346.53;5052806;28;20488;-55
2022/06/27 03:39:01;;;;;;;13.05;8.68;;;;;;;17.05;100.00;101350.84;5051453;28;20064;-48
2022/06/27 03:41:29;;;;;;;11.43;7.47;;;;;;;17.10;100.00;101333.66;5052329;28;20083;-55
2022/06/27 03:43:57;;;;;;;12.13;8.55;;;;;;;17.12;100.00;101334.41;5052653;28;20455;-51
2022/06/27 03:46:25;;;;;;;12.50;8.57;;;;;;;17.11;100.00;101335.38;5052663;28;20538;-53
2022/06/27 03:51:39;;;;;;;12.60;7.07;;;;;;;17.07;100.00;101318.84;5052471;28;20114;-55
2022/06/27 03:54:08;;;;;;;10.10;6.40;;;;;;;17.04;100.00;101317.31;5052477;28;20488;-49
2022/06/27 03:56:36;;;;;;;9.23;6.35;;;;;;;17.07;100.00;101313.53;5052693;28;20045;-51
2022/06/27 03:59:04;;;;;;;9.85;6.60;;;;;;;16.96;100.00;101314.47;5052404;28;20515;-55
2022/06/27 04:01:32;;;;;;;12.98;6.70;;;;;;;16.99;100.00;101322.16;5052494;28;20060;-55
2022/06/27 04:04:00;;;;;;;9.75;6.13;;;;;;;16.94;100.00;101313.72;5052555;28;20053;-49
2022/06/27 04:06:28;;;;;;;10.95;6.10;;;;;;;16.96;100.00;101322.44;5052642;28;20053;-48
2022/06/27 04:08:58;;;;;;;9.73;6.25;;;;;;;17.00;100.00;101323.84;5052447;28;20060;-54
2022/06/27 04:11:27;;;;;;;11.68;6.03;;;;;;;16.97;100.00;101339.19;5052243;28;20052;-51
2022/06/27 04:13:55;;;;;;;11.27;6.50;;;;;;;16.88;100.00;101340.78;5052198;28;20048;-50
2022/06/27 04:16:23;;;;;;;9.05;5.63;;;;;;;16.83;100.00;101330.53;5052416;28;20098;-54
2022/06/27 04:18:55;;;;;;;9.77;6.07;;;;;;;16.84;100.00;101326.09;5052090;28;20455;-49
2022/06/27 04:21:23;;;;;;;9.43;6.13;;;;;;;16.89;100.00;101323.91;5052273;28;20403;-56
2022/06/27 04:23:51;;;;;;;10.50;6.13;;;;;;;16.86;100.00;101327.63;5052387;28;20057;-56
2022/06/27 04:26:21;;;;;;;10.00;5.85;;;;;;;16.85;100.00;101341.03;5067668;28;20041;-57
2022/06/27 04:28:49;;;;;;;10.95;6.28;;;;;;;16.86;100.00;101340.91;5052192;28;20500;-53
2022/06/27 04:31:17;;;;;;;9.75;6.00;;;;;;;16.96;100.00;101343.69;5052054;28;20051;-47
2022/06/27 04:33:45;;;;;;;10.27;6.55;;;;;;;16.94;100.00;101337.63;5052114;28;20128;-48
2022/06/27 04:36:13;;;;;;;10.57;5.93;;;;;;;16.97;100.00;101337.38;5052260;28;20048;-57
2022/06/27 04:38:41;;;;;;;10.57;6.70;;;;;;;16.92;100.00;101347.56;5052227;28;20080;-46
2022/06/27 04:41:09;;;;;;;12.00;6.90;;;;;;;16.92;100.00;101342.25;5052029;28;20049;-56
2022/06/27 04:43:38;;;;;;;11.30;6.75;;;;;;;16.93;100.00;101335.94;5052169;28;20124;-51
2022/06/27 04:46:06;;;;;;;12.40;7.78;;;;;;;16.97;100.00;101334.72;5051746;28;20115;-55
2022/06/27 04:48:37;;;;;;;13.20;7.30;;;;;;;17.00;100.00;101331.81;5051849;28;20048;-52
2022/06/27 04:51:06;;;;;;;10.48;7.60;;;;;;;17.08;100.00;101325.84;5051978;28;20060;-54
2022/06/27 04:53:35;;;;;;;10.63;7.03;;;;;;;17.15;100.00;101318.19;5051992;28;20503;-56
2022/06/27 04:56:03;;;;;;;12.38;7.28;;;;;;;17.20;100.00;101318.63;5052063;28;20403;-51
2022/06/27 04:58:31;;;;;;;11.35;7.03;;;;;;;17.20;100.00;101318.63;5051846;28;20179;-54
2022/06/27 05:01:01;;;;;;;11.85;7.63;;;;;;;17.17;100.00;101317.09;5051760;28;20087;-55
2022/06/27 05:03:29;;;;;;;12.82;7.28;;;;;;;17.20;100.00;101308.84;5068107;28;20504;-58
2022/06/27 05:05:57;;;;;;;11.90;7.57;;;;;;;17.22;100.00;101300.75;5055818;28;20076;-51
2022/06/27 05:08:26;;;;;;;12.38;8.20;;;;;;;17.28;100.00;101304.69;5055976;28;20052;-49
2022/06/27 05:10:54;;;;;;;15.77;9.13;;;;;;;17.33;100.00;101303.31;5055540;28;20049;-55
2022/06/27 05:13:22;;;;;;;12.10;7.85;;;;;;;17.35;100.00;101306.66;5055890;28;20044;-56
2022/06/27 05:15:50;;;;;;;13.05;8.88;;;;;;;17.39;100.00;101308.09;5055963;28;20049;-54
2022/06/27 05:18:20;;;;;;;14.23;8.63;;;;;;;17.43;100.00;101302.53;5055546;28;20077;-51
2022/06/27 05:20:48;;;;;;;12.70;8.35;;;;;;;17.45;100.00;101313.84;5055528;28;20041;-54
2022/06/27 05:23:16;;;;;;;15.40;9.35;;;;;;;17.51;100.00;101316.81;5055685;28;20052;-55
2022/06/27 05:25:44;;;;;;;15.90;9.70;;;;;;;17.54;100.00;101305.06;5055745;28;20091;-48
2022/06/27 05:28:12;;;;;;;13.75;9.32;;;;;;;17.58;100.00;101312.63;5055304;28;20047;-55
2022/06/27 05:30:41;;;;;;;13.68;9.30;;;;;;;17.57;100.00;101302.16;5055458;28;20045;-51
2022/06/27 05:33:09;;;;;;;17.13;9.38;;;;;;;17.63;100.00;101293.63;5055262;28;20443;-50
2022/06/27 05:35:39;;;;;;;15.20;8.98;;;;;;;17.70;100.00;101292.13;5055201;28;20052;-50
2022/06/27 05:38:07;;;;;;;14.18;9.18;;;;;;;17.66;100.00;101289.88;5055252;28;20041;-56
2022/06/27 05:40:36;;;;;;;15.27;9.85;;;;;;;17.64;100.00;101283.84;5055164;28;20044;-56
2022/06/27 05:43:04;;;;;;;13.77;9.82;;;;;;;17.65;100.00;101289.00;5055168;28;20098;-55
2022/06/27 05:45:32;;;;;;;16.08;10.10;;;;;;;17.64;100.00;101300.66;5054997;28;20072;-56
2022/06/27 05:48:01;;;;;;;14.77;10.00;;;;;;;17.69;100.00;101301.06;5054920;28;20041;-51
2022/06/27 05:50:29;;;;;;;15.27;10.15;;;;;;;17.71;100.00;101296.47;5055017;28;20049;-52
2022/06/27 05:53:01;;;;;;;15.07;10.68;;;;;;;17.73;100.00;101297.16;5054954;28;20057;-51
2022/06/27 05:55:33;;;;;;;13.13;9.88;;;;;;;17.65;100.00;101294.34;5055054;28;20045;-55
2022/06/27 05:58:02;;;;;;;17.15;10.40;;;;;;;17.66;100.00;101303.16;5054877;28;20041;-51
2022/06/27 06:00:30;;;;;;;14.35;10.68;;;;;;;17.70;100.00;101324.03;5053483;28;20400;-56
2022/06/27 06:02:59;;;;;;;14.05;10.32;;;;;;;17.72;100.00;101348.69;5053308;28;20037;-55
2022/06/27 06:05:28;;;;;;;14.73;10.40;;;;;;;17.84;100.00;101381.34;5054645;28;20053;-50
2022/06/27 06:08:02;;;;;;;13.73;9.52;;;;;;;17.83;100.00;101385.00;5054846;28;20056;-48
2022/06/27 06:10:30;;;;;;;14.93;9.63;;;;;;;17.88;100.00;101374.75;5053468;28;20049;-48
2022/06/27 06:13:01;;;;;;;16.23;10.18;;;;;;;17.99;100.00;101355.22;5054468;28;20049;-46
2022/06/27 06:15:31;;;;;;;13.50;9.75;;;;;;;18.04;100.00;101386.78;5054007;28;20122;-54
2022/06/27 06:18:01;;;;;;;14.50;10.30;;;;;;;18.08;100.00;101412.97;5053163;28;20052;-50
2022/06/27 06:20:31;;;;;;;14.23;9.77;;;;;;;18.08;100.00;101410.31;5054594;28;20488;-57
2022/06/27 06:23:01;;;;;;;14.10;9.70;;;;;;;18.18;100.00;101420.97;5054443;28;20040;-57
2022/06/27 06:25:29;;;;;;;16.00;9.80;;;;;;;18.19;100.00;101413.84;5054456;28;20037;-54
2022/06/27 06:28:01;;;;;;;14.98;9.88;;;;;;;18.25;100.00;101423.94;5054023;28;20094;-55
2022/06/27 06:30:30;;;;;;;14.80;10.15;;;;;;;18.30;100.00;101427.03;5054358;28;20052;-56
2022/06/27 06:33:04;;;;;;;12.27;9.45;;;;;;;18.38;100.00;101432.53;5054327;28;20064;-55
2022/06/27 06:35:33;;;;;;;12.68;9.10;;;;;;;18.34;100.00;101441.75;5054491;28;20483;-55
2022/06/27 06:38:04;;;;;;;14.35;10.13;;;;;;;18.37;100.00;101443.31;5054090;28;20570;-55
2022/06/27 06:40:33;;;;;;;12.00;9.63;;;;;;;18.38;100.00;101432.53;5054155;28;20045;-56
2022/06/27 06:43:03;;;;;;;13.80;10.07;;;;;;;18.37;100.00;101427.34;5053862;28;20053;-56
2022/06/27 06:45:31;;;;;;;13.43;9.43;;;;;;;18.39;100.00;101415.56;5054007;28;20049;-55
2022/06/27 06:48:00;;;;;;;13.77;9.82;;;;;;;18.40;100.00;101411.91;5053683;28;20032;-55
2022/06/27 06:50:28;;;;;;;12.70;9.13;;;;;;;18.38;100.00;101427.19;5054024;28;20118;-51
2022/06/27 06:52:56;;;;;;;14.48;8.98;;;;;;;18.37;100.00;101433.50;5053801;28;20057;-56
2022/06/27 06:55:26;;;;;;;13.70;8.98;;;;;;;18.34;100.00;101439.09;5053779;28;20049;-49
2022/06/27 06:57:55;;;;;;;14.05;9.70;;;;;;;18.38;100.00;101439.69;5053949;28;20041;-56
2022/06/27 07:00:23;;;;;;;12.45;8.82;;;;;;;18.39;100.00;101433.34;5053791;28;20458;-51
2022/06/27 07:02:52;;;;;;;13.05;8.85;;;;;;;18.45;100.00;101439.94;5054050;28;20052;-56
2022/06/27 07:05:21;;;;;;;12.82;9.40;;;;;;;18.51;100.00;101428.75;5053769;28;20087;-51
2022/06/27 07:07:51;;;;;;;13.38;8.43;;;;;;;18.54;100.00;101413.34;5053609;28;20045;-55
2022/06/27 07:10:20;;;;;;;13.52;9.35;;;;;;;18.57;100.00;101393.59;5053805;28;20080;-56
2022/06/27 07:12:50;;;;;;;13.77;9.38;;;;;;;18.64;100.00;101383.19;5053363;28;20123;-48
2022/06/27 07:15:19;;;;;;;12.88;8.82;;;;;;;18.73;100.00;101366.38;5052229;28;20052;-52
2022/06/27 07:17:49;;;;;;;13.48;9.75;;;;;;;18.74;100.00;101352.91;5053578;28;20045;-48
2022/06/27 07:20:19;;;;;;;14.27;8.80;;;;;;;18.77;100.00;101334.97;5053226;28;20045;-56
2022/06/27 07:22:48;;;;;;;12.40;8.80;;;;;;;18.77;100.00;101324.31;5053248;28;20135;-54
2022/06/27 07:25:17;;;;;;;12.98;8.98;;;;;;;18.77;100.00;101332.31;5053217;28;20041;-49
2022/06/27 07:27:46;;;;;;;14.02;8.93;;;;;;;18.82;100.00;101341.56;5052114;28;20056;-56
2022/06/27 07:30:16;;;;;;;13.02;8.90;;;;;;;18.87;100.00;101354.44;5053125;28;20053;-49
2022/06/27 07:32:45;;;;;;;11.98;8.10;;;;;;;18.90;100.00;101367.53;5053450;28;20432;-54
2022/06/27 07:35:16;;;;;;;13.05;7.75;;;;;;;18.98;100.00;101372.13;5052962;28;20485;-51
2022/06/27 07:37:48;;;;;;;13.38;9.18;;;;;;;19.00;100.00;101362.19;5053103;28;20067;-51
2022/06/27 07:40:18;;;;;;;13.27;8.43;;;;;;;19.01;100.00;101380.69;5053283;28;20449;-49
2022/06/27 07:42:49;;;;;;;12.27;8.13;;;;;;;19.09;100.00;101380.81;5052728;28;20495;-50
2022/06/27 07:45:23;;;;;;;12.40;8.43;;;;;;;19.07;100.00;101369.47;5052626;28;20060;-49
2022/06/27 07:47:54;;;;;;;10.85;8.07;;;;;;;19.08;100.00;101386.31;5052837;28;20056;-49
2022/06/27 07:50:40;;;;;;;13.43;9.10;;;;;;;19.08;100.00;101395.13;5052930;28;20045;-56
2022/06/27 07:53:13;;;;;;;12.32;8.98;;;;;;;19.16;100.00;101404.25;5052825;28;20435;-50
2022/06/27 07:55:45;;;;;;;13.40;8.60;;;;;;;19.20;100.00;101408.31;5052664;28;20515;-54
2022/06/27 07:58:16;;;;;;;13.57;8.85;;;;;;;19.25;100.00;101408.72;5051400;28;20077;-56
2022/06/27 08:00:49;;;;;;;14.38;8.45;;;;;;;19.34;100.00;101394.53;5052980;28;20119;-52
2022/06/27 08:03:39;;;;;;;11.90;8.38;;;;;;;19.39;100.00;101386.94;5052674;28;20507;-50
2022/06/27 08:06:11;;;;;;;15.50;8.15;;;;;;;19.49;99.61;101386.06;5052575;28;20127;-48
2022/06/27 08:08:41;;;;;;;12.00;7.60;;;;;;;19.53;98.11;101396.28;5052360;28;20077;-55
2022/06/27 08:11:11;;;;;;;12.77;9.02;;;;;;;19.57;97.94;101407.53;5052500;28;20052;-51
2022/06/27 08:13:41;;;;;;;13.13;7.82;;;;;;;19.66;97.50;101421.81;5052466;28;20399;-56
2022/06/27 08:16:14;;;;;;;11.95;8.23;;;;;;;19.68;96.98;101431.34;5052375;28;20049;-49
2022/06/27 08:18:44;;;;;;;10.73;7.88;;;;;;;19.70;97.08;101441.88;5052514;28;20377;-50
2022/06/27 08:21:14;;;;;;;13.40;6.97;;;;;;;19.73;96.30;101455.78;5052540;28;20131;-57
2022/06/27 08:23:42;;;;;;;12.55;8.15;;;;;;;19.89;96.39;101475.69;5052140;28;20052;-49
2022/06/27 08:26:12;;;;;;;13.10;6.85;;;;;;;19.82;96.60;101478.09;5052467;28;20045;-56
2022/06/27 08:28:42;;;;;;;11.98;7.75;;;;;;;19.85;95.15;101487.63;5052311;28;20053;-51
2022/06/27 08:31:13;;;;;;;10.75;7.45;;;;;;;19.94;95.42;101494.78;5052114;28;20037;-56
2022/06/27 08:33:43;;;;;;;13.35;7.30;;;;;;;20.00;96.64;101486.22;5051977;28;20403;-50
2022/06/27 08:36:14;;;;;;;12.15;7.07;;;;;;;20.09;93.81;101471.13;5051583;28;20099;-56
2022/06/27 08:38:50;;;;;;;12.20;7.35;;;;;;;20.15;93.20;101493.72;5051520;28;20044;-48
2022/06/27 08:41:20;;;;;;;13.05;7.93;;;;;;;20.33;93.43;101491.97;5051590;28;20492;-56
2022/06/27 08:43:49;;;;;;;13.90;8.85;;;;;;;20.48;92.28;101480.75;5051497;28;20045;-51
2022/06/27 08:46:19;;;;;;;14.90;8.57;;;;;;;20.49;92.51;101463.75;5051212;28;20122;-50
2022/06/27 08:48:50;;;;;;;13.27;8.88;;;;;;;20.55;88.50;101466.66;5051394;28;20041;-47
2022/06/27 08:51:19;;;;;;;10.13;7.63;;;;;;;20.59;88.70;101472.56;5051577;28;20045;-57
2022/06/27 08:53:50;;;;;;;9.77;6.72;;;;;;;20.68;86.37;101476.13;5051454;28;20049;-56
2022/06/27 08:56:19;;;;;;;11.40;6.57;;;;;;;20.71;86.12;101484.72;5051524;28;20102;-49
2022/06/27 08:58:48;;;;;;;10.43;6.45;;;;;;;20.89;83.75;101487.41;5051627;28;20095;-56
2022/06/27 09:01:19;;;;;;;10.27;6.53;;;;;;;21.01;82.37;101485.34;5051469;28;20064;-51
2022/06/27 09:03:56;;;;;;;10.25;5.78;;;;;;;21.03;83.05;101487.88;5051745;28;20067;-53
2022/06/27 09:06:24;;;;;;;11.13;7.22;;;;;;;21.09;84.00;101498.81;5051626;28;20053;-52
2022/06/27 09:09:03;;;;;;;10.77;6.90;;;;;;;21.00;84.55;101494.38;5050985;28;20053;-54
2022/06/27 09:11:35;;;;;;;10.30;6.95;;;;;;;21.16;84.32;101482.97;5051548;28;20049;-49
2022/06/27 09:14:05;;;;;;;11.60;6.82;;;;;;;21.24;84.74;101483.06;5051528;28;20044;-50
2022/06/27 09:16:35;;;;;;;13.20;6.20;;;;;;;21.32;86.89;101470.72;5050092;28;20534;-47
2022/06/27 09:19:09;;;;;;;9.93;5.75;;;;;;;21.46;83.18;101480.88;5051190;28;20560;-55
2022/06/27 09:21:37;;;;;;;11.00;5.85;;;;;;;21.51;82.29;101477.72;5051366;28;20565;-56
2022/06/27 09:24:05;;;;;;;10.75;5.25;;;;;;;21.62;77.48;101472.13;5051120;28;20049;-57
2022/06/27 09:26:35;;;;;;;9.85;5.45;;;;;;;21.66;77.88;101475.34;5051274;28;20470;-50
2022/06/27 09:29:06;;;;;;;9.75;5.90;;;;;;;21.49;76.72;101495.75;5051730;28;20044;-49
2022/06/27 09:31:38;;;;;;;10.32;4.95;;;;;;;21.65;79.40;101509.31;5051976;28;20041;-51
2022/06/27 09:34:14;;;;;;;9.82;5.20;;;;;;;21.59;77.72;101502.72;5051522;28;20040;-54
2022/06/27 09:36:45;;;;;;;10.05;5.57;;;;;;;21.56;75.09;101511.06;5051440;28;20492;-47
2022/06/27 09:39:28;;;;;;;10.00;4.80;;;;;;;21.66;76.90;101515.50;5051768;28;20053;-47
2022/06/27 09:41:59;;;;;;;10.00;5.30;;;;;;;21.84;80.25;101504.72;5051771;28;20072;-57
2022/06/27 09:44:31;;;;;;;10.55;5.47;;;;;;;21.92;79.69;101496.75;5051456;28;20068;-47
2022/06/27 09:47:06;;;;;;;8.90;5.30;;;;;;;21.95;74.24;101486.56;5051496;28;20048;-47
2022/06/27 09:49:37;;;;;;;8.77;4.88;;;;;;;21.99;74.02;101492.44;5051336;28;20110;-55
2022/06/27 09:52:08;;;;;;;10.20;5.50;;;;;;;22.00;72.43;101503.97;5054487;28;20049;-57
2022/06/27 09:54:38;;;;;;;8.45;4.40;;;;;;;22.06;74.32;101506.88;5054907;28;20131;-56
2022/06/27 09:57:08;;;;;;;9.13;4.80;;;;;;;22.05;74.48;101510.53;5054852;28;20049;-56
2022/06/27 09:59:42;;;;;;;8.20;5.10;;;;;;;22.11;75.37;101511.72;5055104;28;20095;-57
2022/06/27 10:02:13;;;;;;;10.25;4.63;;;;;;;22.08;73.45;101504.03;5054999;28;20576;-54
2022/06/27 10:04:43;;;;;;;9.15;4.40;;;;;;;21.95;74.75;101507.13;5054825;28;20056;-56
2022/06/27 10:07:13;;;;;;;8.30;4.72;;;;;;;21.88;71.65;101508.75;5054906;28;20045;-52
2022/06/27 10:09:42;;;;;;;8.48;4.55;;;;;;;22.06;72.45;101504.19;5054741;28;20110;-51
2022/06/27 10:12:21;;;;;;;9.10;4.60;;;;;;;22.25;72.33;101504.94;5054602;28;20068;-47
2022/06/27 10:15:21;;;;;;;8.18;4.50;;;;;;;22.25;70.80;101486.19;5054534;28;20053;-50
2022/06/27 10:17:54;;;;;;;8.25;4.00;;;;;;;22.24;68.27;101479.16;5054490;28;20045;-57
2022/06/27 10:20:32;;;;;;;9.57;4.03;;;;;;;22.38;69.70;101478.56;5054414;28;20103;-57
2022/06/27 10:23:37;;;;;;;11.13;4.93;;;;;;;22.31;69.65;101477.50;5054411;28;20052;-51
2022/06/27 10:26:05;;;;;;;8.88;5.13;;;;;;;22.40;69.98;101483.75;5054345;28;20132;-51
2022/06/27 10:28:36;;;;;;;9.18;4.75;;;;;;;22.38;72.48;101488.44;5054547;28;20492;-57
2022/06/27 10:31:08;;;;;;;10.82;5.10;;;;;;;22.42;69.91;101482.59;5054277;28;20041;-50
2022/06/27 10:33:38;;;;;;;;;;;;;;;22.57;69.26;101476.63;5055063;28;20053;-57
2022/06/27 10:36:13;;;;;;;12.43;5.13;;;;;;;22.85;68.91;101476.31;5054357;28;19920;-57
2022/06/27 10:38:49;;;;;;;12.00;4.57;;;;;;;22.95;71.16;101471.66;5054108;28;20056;-51
2022/06/27 10:41:41;;;;;;;9.65;5.57;;;;;;;23.03;68.47;101463.59;5053801;28;20504;-57
2022/06/27 10:44:30;;;;;;;8.45;4.57;;;;;;;23.27;70.48;101467.31;5053727;28;20053;-56
2022/06/27 10:46:59;;;;;;;10.15;5.10;;;;;;;23.42;68.58;101468.31;5053935;28;20508;-51
2022/06/27 10:49:31;;;;;;;13.15;5.43;;;;;;;23.56;67.39;101458.72;5053879;28;20484;-51
2022/06/27 10:52:32;;;;;;;8.77;4.93;;;;;;;23.54;65.16;101462.59;5053878;28;20073;-53
2022/06/27 10:55:01;;;;;;;10.32;5.10;;;;;;;23.69;63.72;101452.81;5053008;28;20048;-49
2022/06/27 10:57:46;;;;;;;8.82;5.10;;;;;;;23.96;62.10;101450.75;5053176;28;20048;-50
2022/06/27 11:00:37;;;;;;;9.23;4.47;;;;;;;23.90;63.13;101441.56;5051662;28;20052;-51
2022/06/27 11:03:08;;;;;;;8.52;4.10;;;;;;;23.90;63.76;101438.88;5053320;28;20048;-49
2022/06/27 11:05:55;;;;;;;8.93;4.88;;;;;;;23.87;63.19;101441.00;5053612;28;20049;-47
2022/06/27 11:08:25;;;;;;;7.55;4.88;;;;;;;23.91;64.51;101445.88;5053578;28;20049;-56
2022/06/27 11:10:53;;;;;;;11.45;5.60;;;;;;;23.96;62.08;101454.28;5053328;28;20381;-47
2022/06/27 11:13:43;;;;;;;9.43;4.53;;;;;;;24.11;62.74;101462.44;5053390;28;20049;-57
2022/06/27 11:16:15;;;;;;;6.78;3.92;;;;;;;24.19;63.02;101461.56;5053335;28;20118;-46
2022/06/27 11:18:45;;;;;;;10.27;4.17;;;;;;;24.20;62.03;101473.16;5053447;28;20134;-57
2022/06/27 11:21:16;;;;;;;8.52;4.70;;;;;;;24.23;60.11;101475.50;5068514;28;20053;-55
2022/06/27 11:23:53;;;;;;;8.73;4.75;;;;;;;24.30;60.84;101471.91;5052997;28;20500;-57
2022/06/27 11:26:23;;;;;;;12.23;4.10;;;;;;;24.29;60.90;101474.78;5052810;28;20056;-44
2022/06/27 11:34:28;;;;;;;9.13;3.67;;;;;;;24.35;58.18;101460.66;5053164;28;20558;-58
2022/06/27 11:36:59;;;;;;;6.18;3.17;;;;;;;24.19;58.51;101476.88;5052831;28;20439;-56
2022/06/27 11:39:30;;;;;;;7.35;3.92;;;;;;;24.21;57.42;101474.81;5053189;28;20049;-54